createdAt,value
2022-11-27T00:01:13.330Z,5.83
2022-11-27T00:03:40.879Z,1.97
2022-11-27T00:06:08.850Z,2.57
2022-11-27T00:08:35.548Z,2.33
2022-11-27T00:11:17.587Z,3.30
2022-11-27T00:13:44.702Z,1.60
2022-11-27T00:16:12.943Z,2.07
2022-11-27T00:18:40.463Z,2.70
2022-11-27T00:21:10.673Z,4.23
2022-11-27T00:23:37.954Z,1.80
2022-11-27T00:26:06.236Z,1.87
2022-11-27T00:28:33.949Z,1.23
2022-11-27T00:31:02.522Z,2.40
2022-11-27T00:33:29.451Z,1.60
2022-11-27T00:35:56.209Z,2.97
2022-11-27T00:38:23.049Z,1.27
2022-11-27T00:40:49.817Z,2.90
2022-11-27T00:43:16.610Z,2.10
2022-11-27T00:45:43.368Z,2.00
2022-11-27T00:48:10.079Z,1.20
2022-11-27T00:50:36.855Z,0.77
2022-11-27T00:53:03.644Z,1.27
2022-11-27T00:55:30.501Z,1.00
2022-11-27T00:57:57.248Z,0.63
2022-11-27T01:00:24.096Z,0.40
2022-11-27T01:02:50.891Z,1.63
2022-11-27T01:05:17.743Z,1.23
2022-11-27T01:07:44.485Z,0.87
2022-11-27T01:10:11.776Z,1.00
2022-11-27T01:12:38.572Z,1.60
2022-11-27T01:15:05.883Z,1.90
2022-11-27T01:17:32.629Z,1.77
2022-11-27T01:19:59.544Z,1.33
2022-11-27T01:22:26.321Z,1.37
2022-11-27T01:24:53.050Z,1.93
2022-11-27T01:27:19.781Z,1.43
2022-11-27T01:29:46.575Z,4.30
2022-11-27T01:32:13.363Z,1.33
2022-11-27T01:34:40.247Z,2.23
2022-11-27T01:37:07.145Z,2.90
2022-11-27T01:39:33.935Z,4.07
2022-11-27T01:42:00.751Z,0.80
2022-11-27T01:44:28.552Z,1.17
2022-11-27T01:46:57.186Z,1.70
2022-11-27T01:49:32.929Z,2.30
2022-11-27T01:52:04.048Z,2.53
2022-11-27T01:54:48.331Z,1.27
2022-11-27T01:57:24.856Z,2.43
2022-11-27T01:59:54.450Z,1.90
2022-11-27T02:02:21.289Z,1.63
2022-11-27T02:04:48.186Z,7.60
2022-11-27T02:07:15.240Z,1.60
2022-11-27T02:09:42.224Z,3.13
2022-11-27T02:12:25.642Z,0.83
2022-11-27T02:15:14.827Z,1.63
2022-11-27T02:18:02.209Z,1.47
2022-11-27T02:20:44.381Z,1.23
2022-11-27T02:23:28.974Z,1.60
2022-11-27T02:26:26.234Z,1.67
2022-11-27T02:28:58.625Z,1.40
2022-11-27T02:31:38.813Z,1.20
2022-11-27T02:35:00.879Z,1.27
2022-11-27T02:37:39.536Z,1.43
2022-11-27T02:40:31.171Z,0.60
2022-11-27T02:43:08.685Z,2.07
2022-11-27T02:45:40.580Z,2.30
2022-11-27T02:48:09.244Z,1.10
2022-11-27T02:50:39.433Z,1.47
2022-11-27T02:53:13.461Z,1.87
2022-11-27T02:55:42.755Z,0.80
2022-11-27T02:58:15.212Z,1.87
2022-11-27T03:00:44.877Z,0.50
2022-11-27T03:03:16.516Z,1.03
2022-11-27T03:05:47.551Z,1.00
2022-11-27T03:08:39.124Z,1.57
2022-11-27T03:11:08.929Z,1.80
2022-11-27T03:13:40.686Z,2.00
2022-11-27T03:16:19.783Z,1.57
2022-11-27T03:19:17.444Z,1.63
2022-11-27T03:21:55.685Z,1.40
2022-11-27T03:24:22.908Z,1.70
2022-11-27T03:26:50.023Z,1.77
2022-11-27T03:29:39.605Z,2.77
2022-11-27T03:32:06.594Z,1.57
2022-11-27T03:34:34.243Z,1.80
2022-11-27T03:37:01.398Z,3.70
2022-11-27T03:39:29.256Z,1.47
2022-11-27T03:42:08.362Z,1.90
2022-11-27T03:44:50.270Z,1.23
2022-11-27T03:47:48.036Z,1.83
2022-11-27T03:50:38.597Z,1.63
2022-11-27T03:53:30.156Z,2.33
2022-11-27T03:56:33.660Z,1.70
2022-11-27T03:59:25.193Z,2.53
2022-11-27T04:01:52.104Z,1.77
2022-11-27T04:04:19.122Z,2.00
2022-11-27T04:06:45.899Z,1.93
2022-11-27T04:09:12.606Z,2.03
2022-11-27T04:11:39.383Z,1.83
2022-11-27T04:14:06.265Z,3.10
2022-11-27T04:16:33.080Z,1.50
2022-11-27T04:18:59.919Z,3.03
2022-11-27T04:21:26.626Z,1.77
2022-11-27T04:23:53.368Z,1.67
2022-11-27T04:26:20.207Z,2.83
2022-11-27T04:28:46.985Z,1.87
2022-11-27T04:31:13.792Z,4.57
2022-11-27T04:33:40.585Z,3.17
2022-11-27T04:36:07.584Z,3.43
2022-11-27T04:38:34.308Z,3.27
2022-11-27T04:41:01.332Z,3.63
2022-11-27T04:43:28.922Z,1.70
2022-11-27T04:45:55.631Z,1.40
2022-11-27T04:48:22.447Z,3.27
2022-11-27T04:50:49.191Z,2.43
2022-11-27T04:53:15.936Z,1.80
2022-11-27T04:55:42.789Z,2.67
2022-11-27T04:58:09.547Z,2.20
2022-11-27T05:00:36.327Z,2.60
2022-11-27T05:03:03.166Z,2.03
2022-11-27T05:05:29.986Z,3.70
2022-11-27T05:07:56.754Z,3.57
2022-11-27T05:10:23.631Z,2.17
2022-11-27T05:12:51.066Z,4.17
2022-11-27T05:15:17.834Z,3.73
2022-11-27T05:17:44.546Z,3.87
2022-11-27T05:20:11.572Z,3.23
2022-11-27T05:22:38.357Z,5.67
2022-11-27T05:25:05.395Z,3.97
2022-11-27T05:27:32.146Z,3.53
2022-11-27T05:29:58.880Z,4.13
2022-11-27T05:32:25.596Z,3.30
2022-11-27T05:34:52.365Z,8.00
2022-11-27T05:37:19.960Z,4.73
2022-11-27T05:39:47.382Z,3.77
2022-11-27T05:42:14.393Z,4.27
2022-11-27T05:44:41.208Z,4.83
2022-11-27T05:47:08.218Z,5.43
2022-11-27T05:49:35.292Z,7.47
2022-11-27T05:52:02.017Z,4.23
2022-11-27T05:54:28.746Z,6.43
2022-11-27T05:56:55.502Z,5.43
2022-11-27T05:59:22.487Z,5.00
2022-11-27T06:01:49.596Z,6.77
2022-11-27T06:04:17.524Z,7.13
2022-11-27T06:06:44.357Z,6.97
2022-11-27T06:09:13.127Z,5.03
2022-11-27T06:11:41.117Z,6.33
2022-11-27T06:14:09.379Z,6.20
2022-11-27T06:16:36.613Z,7.23
2022-11-27T06:19:03.494Z,4.40
2022-11-27T06:21:30.329Z,6.00
2022-11-27T06:23:57.247Z,6.63
2022-11-27T06:26:27.068Z,5.07
2022-11-27T06:28:55.016Z,7.07
2022-11-27T06:31:24.801Z,6.77
2022-11-27T06:33:53.425Z,6.47
2022-11-27T06:36:21.915Z,4.07
2022-11-27T06:38:48.751Z,4.13
2022-11-27T06:41:21.178Z,3.77
2022-11-27T06:43:48.634Z,4.93
2022-11-27T06:46:18.234Z,5.97
2022-11-27T06:48:47.124Z,5.83
2022-11-27T06:51:17.620Z,6.97
2022-11-27T06:53:45.060Z,3.37
2022-11-27T06:56:14.342Z,5.73
2022-11-27T06:58:41.813Z,6.00
2022-11-27T07:01:16.395Z,3.97
2022-11-27T07:03:43.925Z,5.80
2022-11-27T07:06:15.157Z,4.77
2022-11-27T07:08:43.066Z,7.80
2022-11-27T07:11:13.542Z,6.90
2022-11-27T07:13:40.773Z,4.40
2022-11-27T07:16:09.656Z,8.03
2022-11-27T07:18:43.997Z,7.30
2022-11-27T07:21:11.204Z,5.30
2022-11-27T07:23:38.464Z,6.37
2022-11-27T07:26:10.200Z,6.00
2022-11-27T07:28:37.407Z,3.00
2022-11-27T07:31:04.953Z,5.63
2022-11-27T07:33:32.513Z,4.87
2022-11-27T07:36:14.669Z,6.37
2022-11-27T07:38:41.996Z,5.90
2022-11-27T07:41:09.478Z,7.63
2022-11-27T07:43:36.777Z,5.57
2022-11-27T07:46:05.670Z,4.13
2022-11-27T07:48:32.734Z,6.90
2022-11-27T07:50:59.656Z,4.17
2022-11-27T07:53:26.464Z,5.43
2022-11-27T07:55:53.205Z,5.93
2022-11-27T07:58:20.038Z,7.07
2022-11-27T08:00:48.482Z,5.40
2022-11-27T08:03:16.605Z,5.53
2022-11-27T08:05:43.376Z,7.87
2022-11-27T08:08:10.077Z,5.67
2022-11-27T08:10:37.728Z,5.90
2022-11-27T08:13:06.122Z,5.17
2022-11-27T08:15:33.273Z,9.53
2022-11-27T08:18:00.097Z,5.03
2022-11-27T08:20:27.265Z,6.13
2022-11-27T08:22:59.557Z,5.03
2022-11-27T08:25:29.628Z,7.73
2022-11-27T08:27:56.410Z,9.10
2022-11-27T08:30:26.245Z,4.20
2022-11-27T08:32:53.207Z,6.23
2022-11-27T08:35:19.984Z,6.17
2022-11-27T08:37:46.786Z,6.77
2022-11-27T08:40:13.706Z,6.60
2022-11-27T08:42:40.475Z,6.17
2022-11-27T08:45:07.664Z,6.60
2022-11-27T08:47:34.602Z,5.53
2022-11-27T08:50:01.506Z,5.30
2022-11-27T08:52:28.292Z,6.37
2022-11-27T08:54:57.786Z,8.73
2022-11-27T08:57:25.184Z,5.30
2022-11-27T08:59:52.165Z,6.23
2022-11-27T09:02:18.905Z,6.53
2022-11-27T09:04:45.808Z,7.43
2022-11-27T09:07:15.232Z,14.20
2022-11-27T09:09:42.129Z,7.20
2022-11-27T09:12:09.643Z,6.77
2022-11-27T09:14:37.029Z,7.03
2022-11-27T09:17:04.024Z,6.13
2022-11-27T09:19:30.829Z,6.53
2022-11-27T09:21:58.202Z,6.27
2022-11-27T09:24:24.962Z,8.37
2022-11-27T09:26:51.767Z,7.23
2022-11-27T09:29:18.674Z,9.23
2022-11-27T09:31:45.635Z,6.27
2022-11-27T09:34:12.451Z,10.43
2022-11-27T09:36:39.312Z,6.20
2022-11-27T09:39:06.183Z,7.00
2022-11-27T09:41:41.841Z,8.97
2022-11-27T09:44:20.822Z,5.73
2022-11-27T09:46:49.362Z,9.90
2022-11-27T09:49:31.570Z,9.17
2022-11-27T09:52:22.606Z,9.97
2022-11-27T09:55:34.471Z,8.50
2022-11-27T09:58:16.187Z,8.47
2022-11-27T10:00:47.203Z,6.97
2022-11-27T10:03:25.497Z,7.70
2022-11-27T10:06:16.998Z,10.00
2022-11-27T10:08:57.563Z,7.90
2022-11-27T10:12:18.797Z,11.23
2022-11-27T10:15:00.237Z,7.60
2022-11-27T10:17:39.367Z,8.87
2022-11-27T10:20:30.297Z,9.57
2022-11-27T10:23:26.182Z,9.73
2022-11-27T10:26:07.790Z,10.90
2022-11-27T10:28:48.640Z,6.63
2022-11-27T10:31:37.136Z,9.47
2022-11-27T10:34:27.192Z,9.97
2022-11-27T10:36:56.322Z,8.47
2022-11-27T10:39:33.837Z,10.23
2022-11-27T10:42:17.549Z,8.17
2022-11-27T10:45:07.914Z,8.83
2022-11-27T10:47:35.904Z,8.43
2022-11-27T10:50:02.666Z,7.20
2022-11-27T10:52:29.432Z,7.70
2022-11-27T10:55:15.568Z,7.13
2022-11-27T10:58:06.596Z,10.60
2022-11-27T11:00:33.399Z,10.30
2022-11-27T11:03:07.300Z,6.40
2022-11-27T11:05:56.778Z,8.97
2022-11-27T11:08:22.246Z,9.70
2022-11-27T11:11:13.230Z,8.33
2022-11-27T11:13:46.020Z,8.13
2022-11-27T11:16:24.389Z,8.93
2022-11-27T11:18:56.227Z,7.63
2022-11-27T11:21:30.674Z,8.20
2022-11-27T11:24:00.673Z,7.83
2022-11-27T11:26:39.855Z,10.57
2022-11-27T11:29:31.470Z,10.03
2022-11-27T11:32:17.085Z,14.43
2022-11-27T11:34:47.482Z,9.00
2022-11-27T11:37:28.764Z,10.27
2022-11-27T11:40:10.792Z,8.40
2022-11-27T11:42:57.375Z,12.53
2022-11-27T11:45:28.664Z,11.03
2022-11-27T11:48:23.023Z,17.37
2022-11-27T11:51:14.750Z,16.40
2022-11-27T11:53:46.759Z,14.13
2022-11-27T11:56:32.054Z,11.33
2022-11-27T11:59:02.707Z,15.63
2022-11-27T12:02:01.411Z,11.97
2022-11-27T12:04:39.930Z,17.33
2022-11-27T12:07:25.507Z,16.83
2022-11-27T12:09:55.291Z,16.53
2022-11-27T12:13:06.212Z,15.00
2022-11-27T12:15:58.428Z,11.17
2022-11-27T12:18:45.597Z,16.93
2022-11-27T12:21:17.242Z,16.97
2022-11-27T12:24:17.810Z,19.23
2022-11-27T12:27:05.807Z,21.17
2022-11-27T12:30:15.758Z,23.23
2022-11-27T12:32:42.505Z,21.83
2022-11-27T12:35:30.789Z,20.97
2022-11-27T12:38:39.529Z,19.57
2022-11-27T12:41:18.229Z,21.30
2022-11-27T12:43:55.834Z,21.00
2022-11-27T12:46:37.569Z,23.10
2022-11-27T12:49:42.909Z,18.87
2022-11-27T12:52:24.875Z,23.77
2022-11-27T12:54:55.859Z,20.83
2022-11-27T12:57:41.383Z,17.13
2022-11-27T13:00:20.280Z,20.63
2022-11-27T13:03:24.707Z,16.93
2022-11-27T13:05:58.501Z,20.80
2022-11-27T13:08:28.332Z,18.50
2022-11-27T13:11:01.071Z,19.93
2022-11-27T13:13:44.343Z,20.40
2022-11-27T13:16:18.958Z,12.17
2022-11-27T13:19:08.728Z,19.93
2022-11-27T13:21:38.329Z,24.73
2022-11-27T13:24:05.643Z,19.23
2022-11-27T13:26:46.418Z,19.50
2022-11-27T13:29:19.169Z,26.23
2022-11-27T13:31:56.978Z,19.60
2022-11-27T13:34:29.136Z,23.33
2022-11-27T13:37:08.203Z,18.23
2022-11-27T13:39:39.177Z,28.53
2022-11-27T13:42:22.117Z,24.13
2022-11-27T13:45:21.322Z,25.73
2022-11-27T13:47:49.405Z,21.63
2022-11-27T13:50:20.320Z,27.43
2022-11-27T13:53:00.160Z,30.27
2022-11-27T13:55:30.572Z,21.20
2022-11-27T13:57:59.673Z,20.83
2022-11-27T14:00:46.730Z,18.93
2022-11-27T14:03:28.400Z,22.47
2022-11-27T14:05:56.471Z,26.10
2022-11-27T14:08:34.469Z,22.17
2022-11-27T14:11:06.152Z,25.27
2022-11-27T14:13:42.773Z,21.50
2022-11-27T14:16:34.836Z,21.00
2022-11-27T14:19:04.797Z,29.37
2022-11-27T14:21:42.840Z,28.37
2022-11-27T14:24:33.137Z,24.00
2022-11-27T14:27:01.388Z,26.37
2022-11-27T14:29:31.611Z,22.70
2022-11-27T14:32:02.840Z,26.93
2022-11-27T14:34:31.618Z,21.77
2022-11-27T14:36:59.485Z,20.00
2022-11-27T14:39:31.528Z,24.67
2022-11-27T14:42:03.667Z,22.27
2022-11-27T14:44:31.346Z,23.37
2022-11-27T14:47:02.163Z,22.10
2022-11-27T14:49:30.343Z,23.90
2022-11-27T14:52:03.075Z,24.13
2022-11-27T14:54:35.330Z,26.30
2022-11-27T14:57:02.623Z,27.10
2022-11-27T14:59:29.445Z,19.50
2022-11-27T15:02:11.560Z,18.33
2022-11-27T15:04:40.947Z,26.77
2022-11-27T15:07:20.229Z,24.40
2022-11-27T15:09:50.394Z,22.07
2022-11-27T15:12:39.922Z,18.30
2022-11-27T15:15:09.921Z,20.83
2022-11-27T15:17:39.170Z,29.03
2022-11-27T15:20:21.928Z,23.23
2022-11-27T15:22:57.349Z,19.83
2022-11-27T15:26:15.137Z,28.37
2022-11-27T15:28:54.107Z,24.17
2022-11-27T15:31:27.845Z,26.50
2022-11-27T15:34:01.165Z,19.00
2022-11-27T15:36:36.133Z,20.73
2022-11-27T15:39:23.366Z,27.47
2022-11-27T15:42:01.546Z,29.13
2022-11-27T15:44:32.867Z,20.63
2022-11-27T15:47:04.266Z,23.23
2022-11-27T15:49:31.333Z,24.63
2022-11-27T15:51:59.404Z,20.93
2022-11-27T15:54:26.529Z,25.70
2022-11-27T15:56:53.336Z,27.97
2022-11-27T15:59:20.891Z,27.60
2022-11-27T16:01:49.602Z,22.47
2022-11-27T16:04:16.841Z,23.20
2022-11-27T16:06:43.671Z,27.07
2022-11-27T16:09:10.508Z,31.40
2022-11-27T16:11:37.580Z,23.93
2022-11-27T16:14:04.609Z,23.73
2022-11-27T16:16:31.667Z,26.53
2022-11-27T16:19:00.636Z,24.40
2022-11-27T16:21:29.898Z,25.97
2022-11-27T16:24:00.569Z,29.43
2022-11-27T16:26:28.869Z,23.07
2022-11-27T16:28:55.731Z,23.47
2022-11-27T16:31:23.980Z,25.23
2022-11-27T16:33:51.215Z,17.70
2022-11-27T16:36:20.379Z,27.73
2022-11-27T16:38:47.208Z,23.83
2022-11-27T16:41:17.644Z,30.60
2022-11-27T16:43:46.866Z,32.67
2022-11-27T16:46:21.646Z,28.13
2022-11-27T16:48:49.507Z,24.83
2022-11-27T16:51:25.207Z,24.37
2022-11-27T16:53:54.074Z,21.73
2022-11-27T16:56:24.024Z,23.63
2022-11-27T16:58:51.692Z,24.57
2022-11-27T17:01:21.898Z,22.53
2022-11-27T17:03:49.245Z,24.27
2022-11-27T17:06:26.119Z,17.47
2022-11-27T17:08:57.020Z,18.70
2022-11-27T17:11:25.966Z,19.60
2022-11-27T17:13:56.633Z,22.30
2022-11-27T17:16:23.676Z,22.43
2022-11-27T17:18:50.736Z,21.83
2022-11-27T17:21:21.664Z,20.90
2022-11-27T17:23:48.458Z,21.83
2022-11-27T17:26:18.293Z,27.17
2022-11-27T17:28:46.064Z,25.00
2022-11-27T17:31:17.718Z,45.70
2022-11-27T17:33:45.685Z,50.90
2022-11-27T17:36:14.251Z,37.40
2022-11-27T17:38:41.976Z,27.17
2022-11-27T17:41:11.751Z,20.30
2022-11-27T17:43:39.851Z,41.77
2022-11-27T17:46:08.601Z,43.00
2022-11-27T17:48:35.586Z,31.77
2022-11-27T17:51:02.440Z,37.57
2022-11-27T17:53:29.608Z,43.87
2022-11-27T17:55:57.227Z,37.43
2022-11-27T17:58:24.007Z,35.23
2022-11-27T18:00:50.757Z,26.60
2022-11-27T18:03:17.668Z,20.37
2022-11-27T18:05:44.390Z,19.40
2022-11-27T18:08:11.234Z,26.43
2022-11-27T18:10:38.009Z,21.33
2022-11-27T18:13:04.800Z,23.00
2022-11-27T18:15:31.733Z,29.63
2022-11-27T18:17:59.208Z,31.27
2022-11-27T18:20:26.633Z,24.23
2022-11-27T18:22:53.470Z,31.83
2022-11-27T18:25:20.273Z,21.43
2022-11-27T18:27:47.025Z,22.60
2022-11-27T18:30:14.148Z,20.60
2022-11-27T18:32:40.842Z,18.93
2022-11-27T18:35:08.110Z,23.43
2022-11-27T18:37:38.376Z,22.07
2022-11-27T18:40:07.076Z,23.33
2022-11-27T18:42:34.035Z,18.87
2022-11-27T18:45:00.883Z,17.30
2022-11-27T18:47:28.229Z,24.67
2022-11-27T18:49:56.601Z,21.83
2022-11-27T18:52:23.499Z,22.03
2022-11-27T18:54:50.686Z,21.67
2022-11-27T18:57:19.142Z,16.77
2022-11-27T18:59:46.004Z,27.43
2022-11-27T19:02:13.648Z,23.53
2022-11-27T19:04:42.940Z,33.17
2022-11-27T19:07:10.015Z,31.50
2022-11-27T19:09:36.803Z,27.57
2022-11-27T19:12:03.895Z,23.13
2022-11-27T19:14:31.239Z,21.97
2022-11-27T19:16:58.686Z,23.87
2022-11-27T19:20:04.927Z,22.17
2022-11-27T19:22:16.940Z,30.87
2022-11-27T19:24:43.690Z,28.47
2022-11-27T19:27:10.859Z,39.77
2022-11-27T19:29:37.844Z,61.67
2022-11-27T19:32:04.726Z,77.43
2022-11-27T19:34:32.188Z,85.97
2022-11-27T19:36:59.106Z,39.17
2022-11-27T19:39:27.116Z,33.43
2022-11-27T19:41:55.390Z,35.70
2022-11-27T19:44:22.400Z,59.33
2022-11-27T19:46:49.463Z,33.00
2022-11-27T19:49:17.935Z,28.47
2022-11-27T19:51:44.965Z,25.43
2022-11-27T19:54:13.647Z,30.23
2022-11-27T19:59:33.259Z,21.40
2022-11-27T20:02:00.066Z,34.30
2022-11-27T20:04:27.032Z,37.43
2022-11-27T20:06:53.776Z,31.50
2022-11-27T20:09:21.035Z,34.97
2022-11-27T20:11:47.910Z,31.00
2022-11-27T20:14:14.993Z,27.07
2022-11-27T20:16:41.813Z,28.30
2022-11-27T20:19:08.922Z,28.70
2022-11-27T20:21:38.149Z,20.80
2022-11-27T20:24:05.353Z,18.20
2022-11-27T20:26:32.255Z,19.97
2022-11-27T20:28:59.019Z,31.10
2022-11-27T20:31:31.813Z,16.03
2022-11-27T20:34:01.040Z,19.60
2022-11-27T20:36:30.337Z,18.83
2022-11-27T20:38:59.052Z,18.73
2022-11-27T20:41:26.895Z,26.77
2022-11-27T20:43:56.270Z,41.17
2022-11-27T20:46:23.643Z,31.03
2022-11-27T20:48:52.480Z,30.70
2022-11-27T20:51:24.088Z,28.13
2022-11-27T20:53:51.389Z,29.60
2022-11-27T20:56:19.796Z,27.73
2022-11-27T20:58:47.592Z,24.77
2022-11-27T21:01:29.996Z,26.23
2022-11-27T21:03:58.717Z,23.30
2022-11-27T21:06:28.585Z,21.53
2022-11-27T21:08:55.839Z,21.13
2022-11-27T21:11:27.721Z,20.97
2022-11-27T21:13:58.682Z,21.13
2022-11-27T21:16:31.213Z,32.30
2022-11-27T21:19:04.391Z,24.07
2022-11-27T21:21:32.076Z,27.90
2022-11-27T21:23:59.640Z,27.87
2022-11-27T21:26:27.773Z,27.67
2022-11-27T21:28:54.789Z,36.07
2022-11-27T21:31:24.570Z,37.20
2022-11-27T21:33:54.793Z,34.73
2022-11-27T21:36:24.896Z,23.83
2022-11-27T21:38:51.707Z,17.67
2022-11-27T21:41:19.747Z,18.57
2022-11-27T21:43:48.060Z,18.20
2022-11-27T21:46:19.974Z,21.70
2022-11-27T21:48:48.918Z,22.33
2022-11-27T21:51:16.529Z,26.47
2022-11-27T21:53:45.429Z,19.40
2022-11-27T21:56:15.392Z,20.47
2022-11-27T21:58:42.760Z,23.00
2022-11-27T22:01:13.807Z,18.13
2022-11-27T22:03:42.902Z,25.77
2022-11-27T22:06:15.039Z,20.37
2022-11-27T22:08:46.362Z,23.40
2022-11-27T22:11:19.952Z,21.57
2022-11-27T22:13:47.098Z,30.57
2022-11-27T22:16:20.237Z,31.50
2022-11-27T22:18:48.054Z,32.63
2022-11-27T22:21:17.869Z,32.03
2022-11-27T22:23:45.021Z,32.37
2022-11-27T22:26:18.116Z,27.27
2022-11-27T22:28:45.332Z,24.47
2022-11-27T22:31:40.028Z,26.00
2022-11-27T22:34:06.774Z,38.43
2022-11-27T22:36:34.604Z,34.73
2022-11-27T22:39:04.861Z,38.43
2022-11-27T22:41:36.053Z,27.20
2022-11-27T22:44:07.772Z,37.07
2022-11-27T22:46:35.859Z,36.40
2022-11-27T22:49:05.694Z,35.33
2022-11-27T22:51:35.360Z,31.57
2022-11-27T22:54:03.663Z,27.83
2022-11-27T22:56:33.578Z,32.53
2022-11-27T22:59:30.565Z,28.93
2022-11-27T23:01:48.676Z,34.60
2022-11-27T23:04:15.724Z,29.63
2022-11-27T23:06:44.473Z,26.10
2022-11-27T23:09:11.360Z,34.87
2022-11-27T23:11:38.121Z,36.00
2022-11-27T23:14:04.898Z,28.63
2022-11-27T23:16:31.858Z,27.93
2022-11-27T23:18:58.782Z,32.10
2022-11-27T23:21:26.763Z,22.87
2022-11-27T23:23:53.732Z,33.43
2022-11-27T23:26:22.981Z,36.17
2022-11-27T23:28:53.455Z,34.87
2022-11-27T23:31:31.451Z,31.17
2022-11-27T23:34:01.280Z,32.30
2022-11-27T23:36:29.448Z,28.33
2022-11-27T23:38:56.366Z,26.90
2022-11-27T23:41:24.856Z,30.73
2022-11-27T23:43:53.207Z,28.87
2022-11-27T23:46:22.184Z,34.97
2022-11-27T23:48:49.429Z,37.33
2022-11-27T23:51:18.728Z,46.00
2022-11-27T23:53:46.489Z,34.67
2022-11-27T23:56:15.939Z,35.67
2022-11-27T23:58:46.912Z,30.53
